sensor_id;sensor_type;location;lat;lon;timestamp;pressure;altitude;pressure_sealevel;temperature;humidity
59315;BME280;46521;50.160;20.802;2023-05-09T00:13:50;100807.20;;;4.86;63.77
59315;BME280;46521;50.160;20.802;2023-05-09T00:23:52;100800.58;;;4.80;63.64
59315;BME280;46521;50.160;20.802;2023-05-09T00:33:53;100787.88;;;4.74;64.00
59315;BME280;46521;50.160;20.802;2023-05-09T00:43:55;100788.49;;;4.65;63.71
59315;BME280;46521;50.160;20.802;2023-05-09T00:53:56;100787.87;;;4.61;63.93
59315;BME280;46521;50.160;20.802;2023-05-09T01:03:58;100780.71;;;4.50;63.97
59315;BME280;46521;50.160;20.802;2023-05-09T01:24:54;100767.98;;;4.31;64.27
59315;BME280;46521;50.160;20.802;2023-05-09T01:35:03;100773.92;;;4.21;64.59
59315;BME280;46521;50.160;20.802;2023-05-09T01:45:07;100769.08;;;4.14;64.79
59315;BME280;46521;50.160;20.802;2023-05-09T01:55:10;100776.40;;;4.09;64.35
59315;BME280;46521;50.160;20.802;2023-05-09T02:05:13;100772.58;;;4.01;64.75
59315;BME280;46521;50.160;20.802;2023-05-09T02:15:15;100767.73;;;3.94;64.89
59315;BME280;46521;50.160;20.802;2023-05-09T02:25:17;100771.22;;;3.81;65.26
59315;BME280;46521;50.160;20.802;2023-05-09T02:35:19;100767.14;;;3.76;65.07
59315;BME280;46521;50.160;20.802;2023-05-09T02:45:22;100754.34;;;3.72;65.54
59315;BME280;46521;50.160;20.802;2023-05-09T02:55:24;100760.44;;;3.58;65.61
59315;BME280;46521;50.160;20.802;2023-05-09T03:05:25;100759.70;;;3.56;65.76
59315;BME280;46521;50.160;20.802;2023-05-09T03:15:27;100767.36;;;3.59;65.91
59315;BME280;46521;50.160;20.802;2023-05-09T03:25:28;100759.80;;;3.54;65.80
59315;BME280;46521;50.160;20.802;2023-05-09T03:35:30;100764.65;;;3.60;65.58
59315;BME280;46521;50.160;20.802;2023-05-09T03:45:32;100772.18;;;3.65;66.20
59315;BME280;46521;50.160;20.802;2023-05-09T03:55:33;100772.66;;;3.72;66.20
59315;BME280;46521;50.160;20.802;2023-05-09T04:05:35;100772.18;;;3.79;66.61
59315;BME280;46521;50.160;20.802;2023-05-09T04:15:36;100763.55;;;3.92;66.98
59315;BME280;46521;50.160;20.802;2023-05-09T04:25:38;100773.02;;;4.07;67.17
59315;BME280;46521;50.160;20.802;2023-05-09T04:35:40;100769.64;;;4.32;67.41
59315;BME280;46521;50.160;20.802;2023-05-09T04:45:43;100771.65;;;4.95;67.33
59315;BME280;46521;50.160;20.802;2023-05-09T04:55:45;100768.70;;;5.88;67.28
59315;BME280;46521;50.160;20.802;2023-05-09T05:05:46;100777.14;;;6.88;66.66
59315;BME280;46521;50.160;20.802;2023-05-09T05:15:48;100764.34;;;7.85;66.40
59315;BME280;46521;50.160;20.802;2023-05-09T05:25:50;100770.63;;;8.70;66.08
59315;BME280;46521;50.160;20.802;2023-05-09T05:35:51;100764.80;;;9.59;65.08
59315;BME280;46521;50.160;20.802;2023-05-09T05:45:53;100749.50;;;10.33;64.56
59315;BME280;46521;50.160;20.802;2023-05-09T05:55:55;100754.19;;;10.78;63.87
59315;BME280;46521;50.160;20.802;2023-05-09T06:05:57;100754.85;;;11.37;62.18
59315;BME280;46521;50.160;20.802;2023-05-09T06:15:58;100745.17;;;11.73;61.33
59315;BME280;46521;50.160;20.802;2023-05-09T06:26:00;100748.73;;;12.28;61.07
59315;BME280;46521;50.160;20.802;2023-05-09T06:36:01;100732.97;;;12.71;60.37
59315;BME280;46521;50.160;20.802;2023-05-09T06:46:04;100717.19;;;13.22;58.84
59315;BME280;46521;50.160;20.802;2023-05-09T06:56:06;100717.50;;;13.53;58.51
59315;BME280;46521;50.160;20.802;2023-05-09T07:06:08;100715.75;;;13.95;57.11
59315;BME280;46521;50.160;20.802;2023-05-09T07:37:59;100697.08;;;15.02;54.45
59315;BME280;46521;50.160;20.802;2023-05-09T07:48:01;100673.96;;;15.34;54.03
59315;BME280;46521;50.160;20.802;2023-05-09T08:08:39;100664.27;;;15.95;52.39
59315;BME280;46521;50.160;20.802;2023-05-09T08:18:40;100652.50;;;15.58;52.18
59315;BME280;46521;50.160;20.802;2023-05-09T08:28:42;100643.66;;;15.58;51.53
59315;BME280;46521;50.160;20.802;2023-05-09T08:38:51;100632.33;;;15.87;50.73
59315;BME280;46521;50.160;20.802;2023-05-09T08:48:53;100629.88;;;16.38;49.52
59315;BME280;46521;50.160;20.802;2023-05-09T09:09:19;100619.38;;;16.52;48.76
59315;BME280;46521;50.160;20.802;2023-05-09T09:29:26;100606.80;;;17.27;46.46
59315;BME280;46521;50.160;20.802;2023-05-09T09:39:29;100594.47;;;17.26;45.60
59315;BME280;46521;50.160;20.802;2023-05-09T09:49:30;100586.91;;;17.51;45.45
59315;BME280;46521;50.160;20.802;2023-05-09T09:59:32;100576.27;;;18.01;45.51
59315;BME280;46521;50.160;20.802;2023-05-09T10:09:34;100575.41;;;18.29;44.62
59315;BME280;46521;50.160;20.802;2023-05-09T10:19:43;100551.40;;;18.42;43.65
59315;BME280;46521;50.160;20.802;2023-05-09T11:03:07;100544.46;;;17.05;42.01
59315;BME280;46521;50.160;20.802;2023-05-09T12:06:05;100483.15;;;16.30;40.56
59315;BME280;46521;50.160;20.802;2023-05-09T12:27:49;100438.13;;;16.79;40.69
59315;BME280;46521;50.160;20.802;2023-05-09T12:37:55;100428.41;;;16.56;40.08
59315;BME280;46521;50.160;20.802;2023-05-09T12:47:58;100436.58;;;16.69;39.16
59315;BME280;46521;50.160;20.802;2023-05-09T12:58:02;100422.94;;;16.43;39.37
59315;BME280;46521;50.160;20.802;2023-05-09T13:08:04;100402.82;;;16.10;39.66
59315;BME280;46521;50.160;20.802;2023-05-09T13:18:06;100380.02;;;16.66;39.46
59315;BME280;46521;50.160;20.802;2023-05-09T13:28:07;100373.05;;;16.65;39.19
59315;BME280;46521;50.160;20.802;2023-05-09T13:38:09;100371.34;;;16.79;38.81
59315;BME280;46521;50.160;20.802;2023-05-09T13:48:36;100363.13;;;16.58;38.16
59315;BME280;46521;50.160;20.802;2023-05-09T13:58:38;100345.12;;;16.67;37.81
59315;BME280;46521;50.160;20.802;2023-05-09T14:08:41;100333.94;;;16.57;38.20
59315;BME280;46521;50.160;20.802;2023-05-09T14:18:43;100324.27;;;16.78;38.21
59315;BME280;46521;50.160;20.802;2023-05-09T14:28:45;100306.19;;;16.80;37.45
59315;BME280;46521;50.160;20.802;2023-05-09T14:38:46;100317.41;;;16.68;37.61
59315;BME280;46521;50.160;20.802;2023-05-09T14:49:13;100314.67;;;16.62;36.83
59315;BME280;46521;50.160;20.802;2023-05-09T14:59:14;100319.16;;;16.18;37.07
59315;BME280;46521;50.160;20.802;2023-05-09T15:09:18;100284.72;;;16.23;37.12
59315;BME280;46521;50.160;20.802;2023-05-09T15:19:20;100278.76;;;16.21;36.99
59315;BME280;46521;50.160;20.802;2023-05-09T15:29:22;100273.39;;;15.99;36.65
59315;BME280;46521;50.160;20.802;2023-05-09T15:39:24;100261.80;;;15.92;36.54
59315;BME280;46521;50.160;20.802;2023-05-09T15:49:26;100249.88;;;15.88;36.79
59315;BME280;46521;50.160;20.802;2023-05-09T15:59:29;100231.99;;;15.52;36.65
59315;BME280;46521;50.160;20.802;2023-05-09T16:09:31;100234.29;;;15.40;36.45
59315;BME280;46521;50.160;20.802;2023-05-09T16:19:33;100212.63;;;15.28;36.63
59315;BME280;46521;50.160;20.802;2023-05-09T16:29:35;100202.15;;;15.12;36.58
59315;BME280;46521;50.160;20.802;2023-05-09T16:39:36;100193.23;;;14.90;36.53
59315;BME280;46521;50.160;20.802;2023-05-09T16:49:38;100200.11;;;14.69;36.56
59315;BME280;46521;50.160;20.802;2023-05-09T16:59:39;100186.81;;;14.46;36.73
59315;BME280;46521;50.160;20.802;2023-05-09T17:09:41;100194.28;;;14.28;37.29
59315;BME280;46521;50.160;20.802;2023-05-09T17:19:43;100187.44;;;14.10;37.22
59315;BME280;46521;50.160;20.802;2023-05-09T17:29:45;100192.58;;;13.88;37.65
59315;BME280;46521;50.160;20.802;2023-05-09T17:39:47;100185.24;;;13.67;37.69
59315;BME280;46521;50.160;20.802;2023-05-09T17:49:48;100194.83;;;13.45;38.03
59315;BME280;46521;50.160;20.802;2023-05-09T17:59:50;100195.88;;;13.28;38.25
59315;BME280;46521;50.160;20.802;2023-05-09T18:09:51;100187.34;;;13.01;38.76
59315;BME280;46521;50.160;20.802;2023-05-09T18:19:53;100186.41;;;12.77;38.26
59315;BME280;46521;50.160;20.802;2023-05-09T18:29:54;100185.42;;;12.54;38.85
59315;BME280;46521;50.160;20.802;2023-05-09T18:39:56;100204.03;;;12.29;39.26
59315;BME280;46521;50.160;20.802;2023-05-09T18:49:57;100196.06;;;12.04;38.77
59315;BME280;46521;50.160;20.802;2023-05-09T18:59:59;100209.23;;;11.80;39.63
59315;BME280;46521;50.160;20.802;2023-05-09T19:10:02;100193.80;;;11.67;39.84
59315;BME280;46521;50.160;20.802;2023-05-09T19:20:05;100192.60;;;11.53;39.86
59315;BME280;46521;50.160;20.802;2023-05-09T19:30:06;100188.09;;;11.37;39.46
59315;BME280;46521;50.160;20.802;2023-05-09T19:40:09;100179.91;;;11.22;39.36
59315;BME280;46521;50.160;20.802;2023-05-09T19:50:11;100182.52;;;11.14;39.75
59315;BME280;46521;50.160;20.802;2023-05-09T20:00:13;100181.11;;;10.93;40.31
59315;BME280;46521;50.160;20.802;2023-05-09T20:10:15;100177.06;;;10.81;40.58
59315;BME280;46521;50.160;20.802;2023-05-09T20:20:17;100173.87;;;10.69;40.66
59315;BME280;46521;50.160;20.802;2023-05-09T20:30:19;100170.95;;;10.54;40.94
59315;BME280;46521;50.160;20.802;2023-05-09T20:40:21;100164.41;;;10.40;40.78
59315;BME280;46521;50.160;20.802;2023-05-09T20:50:24;100162.28;;;10.26;41.52
59315;BME280;46521;50.160;20.802;2023-05-09T21:00:25;100160.71;;;10.15;41.55
59315;BME280;46521;50.160;20.802;2023-05-09T21:10:27;100161.77;;;10.04;41.91
59315;BME280;46521;50.160;20.802;2023-05-09T21:20:28;100155.05;;;9.92;41.77
59315;BME280;46521;50.160;20.802;2023-05-09T21:30:30;100148.06;;;9.83;42.15
59315;BME280;46521;50.160;20.802;2023-05-09T21:40:32;100148.81;;;9.75;42.38
59315;BME280;46521;50.160;20.802;2023-05-09T21:50:33;100146.08;;;9.67;42.85
59315;BME280;46521;50.160;20.802;2023-05-09T22:00:35;100140.94;;;9.47;42.79
59315;BME280;46521;50.160;20.802;2023-05-09T22:10:36;100148.22;;;9.35;43.50
59315;BME280;46521;50.160;20.802;2023-05-09T22:20:38;100149.25;;;9.25;43.78
59315;BME280;46521;50.160;20.802;2023-05-09T22:30:39;100138.61;;;9.16;44.23
59315;BME280;46521;50.160;20.802;2023-05-09T22:40:41;100130.89;;;9.05;44.12
59315;BME280;46521;50.160;20.802;2023-05-09T22:50:43;100115.31;;;8.84;44.58
59315;BME280;46521;50.160;20.802;2023-05-09T23:00:45;100105.21;;;8.70;45.27
59315;BME280;46521;50.160;20.802;2023-05-09T23:10:46;100107.07;;;8.59;44.93
59315;BME280;46521;50.160;20.802;2023-05-09T23:20:49;100094.89;;;8.48;45.42
59315;BME280;46521;50.160;20.802;2023-05-09T23:30:52;100083.22;;;8.41;45.97
59315;BME280;46521;50.160;20.802;2023-05-09T23:40:53;100083.39;;;8.30;46.34
59315;BME280;46521;50.160;20.802;2023-05-09T23:50:57;100076.73;;;8.26;45.99
